FDUS

Musi Airport

Musi, Swaziland
METAR FDUS 210700Z AUTO 03002KT //// // ////// 12/09 Q0992
Observed Flight Rules
Jun-21 @ 07:00 UTC (15 hours ago)
Wind
30° at 2 knots
Temperatures Readings
Current 12°C / 54°F
Dewpoint 9°C / 48°F
Humidity 82%
Altimeter 29.29" Hg
Pressure 992 hPa
Elevation 956
METAR FDUS 210700Z AUTO 03002KT //// // ////// 12/09 Q0992
Observed Flight Rules
Jun-21 @ 07:00 UTC
(15 hours ago)
Wind
30° at 2 knots
Temperature Dewpoint
12°C / 54°F 9°C / 48°F
Humidity Altimeter Pressure
82% 29.29" Hg 992 hPa